createdAt,value
2022-09-06T00:03:40.315Z,2.50
2022-09-06T00:08:45.346Z,3.10
2022-09-06T00:13:50.623Z,2.53
2022-09-06T00:18:55.724Z,3.37
2022-09-06T00:23:59.427Z,3.33
2022-09-06T00:29:04.520Z,3.72
2022-09-06T00:34:08.407Z,3.58
2022-09-06T00:39:12.176Z,3.60
2022-09-06T00:44:17.505Z,4.00
2022-09-06T00:49:25.796Z,4.10
2022-09-06T00:59:37.258Z,4.90
2022-09-06T01:04:44.507Z,4.43
2022-09-06T01:10:03.975Z,4.68
2022-09-06T01:15:23.252Z,5.80
2022-09-06T01:20:50.184Z,5.50
2022-09-06T01:26:04.811Z,5.22
2022-09-06T01:31:27.831Z,4.78
2022-09-06T01:36:49.635Z,4.55
2022-09-06T01:42:07.129Z,5.00
2022-09-06T01:47:26.600Z,5.70
2022-09-06T01:52:35.510Z,5.65
2022-09-06T01:58:01.338Z,5.97
2022-09-06T02:03:13.424Z,6.30
2022-09-06T02:08:23.689Z,6.28
2022-09-06T02:13:31.320Z,6.57
2022-09-06T02:18:41.611Z,7.47
2022-09-06T02:23:47.928Z,7.05
2022-09-06T02:28:51.761Z,6.12
2022-09-06T02:33:57.676Z,6.15
2022-09-06T02:39:01.915Z,6.32
2022-09-06T02:44:05.660Z,7.72
2022-09-06T02:49:10.720Z,7.07
2022-09-06T02:54:14.679Z,6.75
2022-09-06T02:59:18.342Z,6.95
2022-09-06T03:04:23.391Z,7.03
2022-09-06T03:09:27.165Z,7.78
2022-09-06T03:14:30.896Z,7.75
2022-09-06T03:19:35.889Z,8.60
2022-09-06T03:24:39.615Z,8.35
2022-09-06T03:29:43.278Z,7.80
2022-09-06T03:34:48.342Z,8.07
2022-09-06T03:39:52.225Z,7.97
2022-09-06T03:44:55.983Z,7.80
2022-09-06T03:50:01.006Z,9.38
2022-09-06T03:55:05.427Z,9.23
2022-09-06T04:00:10.449Z,9.18
2022-09-06T04:05:16.570Z,8.98
2022-09-06T04:10:20.465Z,10.68
2022-09-06T04:15:24.214Z,9.38
2022-09-06T04:20:29.326Z,9.55
2022-09-06T04:25:33.144Z,9.88
2022-09-06T04:30:36.864Z,8.93
2022-09-06T04:35:41.910Z,10.80
2022-09-06T04:40:45.626Z,9.57
2022-09-06T04:45:49.598Z,8.88
2022-09-06T04:50:54.735Z,9.43
2022-09-06T04:55:59.368Z,8.68
2022-09-06T05:01:03.132Z,9.15
2022-09-06T05:06:11.018Z,8.50
2022-09-06T05:11:14.866Z,8.73
2022-09-06T05:16:19.022Z,11.02
2022-09-06T05:21:24.106Z,10.57
2022-09-06T05:26:27.839Z,11.85
2022-09-06T05:31:33.659Z,11.48
2022-09-06T05:36:38.835Z,12.27
2022-09-06T05:41:42.580Z,11.30
2022-09-06T05:46:46.996Z,11.18
2022-09-06T05:51:53.165Z,12.48
2022-09-06T05:56:57.024Z,8.48
2022-09-06T06:02:03.313Z,10.35
2022-09-06T06:07:11.779Z,12.02
2022-09-06T06:12:15.493Z,9.38
2022-09-06T06:17:19.202Z,9.25
2022-09-06T06:22:24.275Z,7.75
2022-09-06T06:27:28.030Z,9.00
2022-09-06T06:32:31.738Z,8.50
2022-09-06T06:37:37.030Z,8.18
2022-09-06T06:42:40.912Z,8.93
2022-09-06T06:47:44.615Z,9.60
2022-09-06T06:52:49.671Z,9.18
2022-09-06T06:57:53.745Z,9.60
2022-09-06T07:02:57.495Z,9.23
2022-09-06T07:08:02.647Z,9.55
2022-09-06T07:13:06.464Z,9.15
2022-09-06T07:18:10.206Z,8.82
2022-09-06T07:28:39.042Z,8.45
2022-09-06T07:33:42.808Z,7.30
2022-09-06T07:38:51.431Z,7.87
2022-09-06T07:43:55.709Z,6.30
2022-09-06T07:48:59.605Z,5.68
2022-09-06T07:54:29.238Z,6.60
2022-09-06T07:59:28.673Z,6.07
2022-09-06T08:04:32.661Z,6.12
2022-09-06T08:09:38.082Z,5.07
2022-09-06T08:14:41.939Z,5.55
2022-09-06T08:19:45.680Z,4.78
2022-09-06T08:24:50.723Z,4.50
2022-09-06T08:29:54.438Z,4.10
2022-09-06T08:34:58.403Z,4.70
2022-09-06T08:40:03.875Z,4.47
2022-09-06T08:45:12.521Z,3.40
2022-09-06T08:50:16.547Z,4.68
2022-09-06T08:55:31.764Z,4.18
2022-09-06T09:00:37.077Z,3.75
2022-09-06T09:05:42.359Z,3.25
2022-09-06T09:10:50.130Z,3.55
2022-09-06T09:15:54.380Z,4.70
2022-09-06T09:20:59.694Z,4.32
2022-09-06T09:26:08.175Z,4.55
2022-09-06T09:31:14.256Z,5.68
2022-09-06T09:36:22.615Z,4.55
2022-09-06T09:41:30.742Z,4.30
2022-09-06T09:46:36.235Z,4.12
2022-09-06T09:51:41.713Z,4.35
2022-09-06T09:56:50.383Z,3.35
2022-09-06T10:01:57.046Z,3.00
2022-09-06T10:07:15.460Z,3.28
2022-09-06T10:12:30.112Z,3.20
2022-09-06T10:17:36.124Z,3.17
2022-09-06T10:22:52.607Z,2.90
2022-09-06T10:28:24.823Z,3.45
2022-09-06T10:33:39.351Z,3.12
2022-09-06T10:38:53.612Z,3.05
2022-09-06T10:44:08.763Z,2.83
2022-09-06T10:49:16.973Z,3.10
2022-09-06T10:54:23.846Z,2.90
2022-09-06T11:10:10.493Z,3.87
2022-09-06T11:15:17.672Z,3.17
2022-09-06T11:20:31.265Z,3.33
2022-09-06T11:26:11.761Z,3.85
2022-09-06T11:36:49.687Z,2.95
2022-09-06T11:41:53.388Z,2.30
2022-09-06T11:47:02.364Z,2.25
2022-09-06T11:52:52.129Z,2.17
2022-09-06T11:57:59.223Z,2.60
2022-09-06T12:08:37.741Z,3.08
2022-09-06T12:14:03.090Z,2.75
2022-09-06T12:19:08.362Z,2.40
2022-09-06T12:24:45.591Z,2.60
2022-09-06T12:29:54.606Z,3.35
2022-09-06T12:40:26.259Z,2.03
2022-09-06T12:45:30.130Z,2.05
2022-09-06T12:50:35.351Z,1.62
2022-09-06T12:55:39.663Z,1.50
2022-09-06T13:00:46.581Z,1.23
2022-09-06T13:05:53.783Z,1.40
2022-09-06T13:10:58.203Z,1.40
2022-09-06T13:16:02.003Z,1.62
2022-09-06T13:21:12.046Z,1.45
2022-09-06T13:26:16.101Z,1.55
2022-09-06T13:31:22.635Z,2.12
2022-09-06T13:36:30.692Z,2.40
2022-09-06T13:41:44.458Z,1.87
2022-09-06T13:46:53.360Z,3.03
2022-09-06T13:52:01.999Z,2.50
2022-09-06T13:57:06.007Z,2.37
2022-09-06T14:02:12.051Z,2.92
2022-09-06T14:07:17.291Z,2.50
2022-09-06T14:12:21.216Z,2.10
2022-09-06T14:17:24.904Z,2.80
2022-09-06T14:22:30.016Z,2.28
2022-09-06T14:27:35.261Z,28.17
2022-09-06T14:32:38.994Z,5.18
2022-09-06T14:37:44.007Z,3.15
2022-09-06T14:42:50.547Z,3.37
2022-09-06T14:47:54.438Z,2.70
2022-09-06T14:52:59.718Z,2.70
2022-09-06T14:58:03.558Z,3.35
2022-09-06T15:03:07.342Z,3.28
2022-09-06T15:08:12.447Z,3.72
2022-09-06T15:13:16.983Z,2.97
2022-09-06T15:18:21.450Z,3.53
2022-09-06T15:23:28.165Z,2.97
2022-09-06T15:28:31.860Z,2.90
2022-09-06T15:33:37.300Z,2.70
2022-09-06T15:38:44.399Z,2.22
2022-09-06T15:43:50.635Z,2.47
2022-09-06T15:48:54.380Z,2.50
2022-09-06T15:53:59.938Z,2.75
2022-09-06T15:59:03.864Z,2.40
2022-09-06T16:04:08.639Z,3.12
2022-09-06T16:09:15.467Z,2.90
2022-09-06T16:14:19.483Z,2.72
2022-09-06T16:19:23.243Z,2.97
2022-09-06T16:24:28.389Z,2.85
2022-09-06T16:29:32.086Z,3.30
2022-09-06T16:34:37.846Z,3.47
2022-09-06T16:39:43.194Z,2.75
2022-09-06T16:44:47.131Z,2.65
2022-09-06T16:49:50.860Z,3.10
2022-09-06T16:54:55.963Z,3.47
2022-09-06T16:59:59.732Z,4.10
2022-09-06T17:05:03.973Z,3.58
2022-09-06T17:10:09.845Z,3.12
2022-09-06T17:15:13.900Z,2.72
2022-09-06T17:20:20.555Z,2.50
2022-09-06T17:25:25.773Z,2.95
2022-09-06T17:30:29.889Z,2.95
2022-09-06T17:35:34.241Z,3.45
2022-09-06T17:40:39.736Z,3.53
2022-09-06T17:45:43.898Z,3.45
2022-09-06T17:50:47.687Z,3.08
2022-09-06T17:55:52.788Z,3.00
2022-09-06T18:00:56.709Z,2.60
2022-09-06T18:06:04.927Z,2.90
2022-09-06T18:11:11.612Z,2.80
2022-09-06T18:16:15.849Z,2.90
2022-09-06T18:21:19.707Z,3.40
2022-09-06T18:26:25.228Z,2.97
2022-09-06T18:31:29.184Z,4.30
2022-09-06T18:36:32.969Z,3.05
2022-09-06T18:41:55.690Z,3.42
2022-09-06T18:47:01.194Z,2.00
2022-09-06T18:52:06.713Z,2.20
2022-09-06T18:57:12.031Z,3.00
2022-09-06T19:02:16.027Z,2.87
2022-09-06T19:07:19.907Z,2.28
2022-09-06T19:12:25.060Z,2.97
2022-09-06T19:17:28.792Z,2.95
2022-09-06T19:22:33.225Z,2.80
2022-09-06T19:27:38.818Z,3.37
2022-09-06T19:32:42.567Z,2.87
2022-09-06T19:37:46.433Z,2.45
2022-09-06T19:42:52.173Z,2.25
2022-09-06T19:47:55.998Z,2.42
2022-09-06T19:53:01.467Z,2.53
2022-09-06T19:58:09.452Z,2.53
2022-09-06T20:03:13.228Z,2.83
2022-09-06T20:08:17.028Z,2.35
2022-09-06T20:13:22.225Z,2.90
2022-09-06T20:18:26.355Z,2.78
2022-09-06T20:23:31.976Z,2.58
2022-09-06T20:28:37.911Z,3.20
2022-09-06T20:33:44.679Z,3.75
2022-09-06T20:38:51.480Z,3.75
2022-09-06T20:43:58.365Z,3.97
2022-09-06T20:49:04.720Z,4.10
2022-09-06T20:54:08.622Z,4.72
2022-09-06T20:59:14.869Z,4.82
2022-09-06T21:04:18.864Z,5.05
2022-09-06T21:09:22.571Z,5.28
2022-09-06T21:14:27.622Z,6.50
2022-09-06T21:19:31.463Z,6.40
2022-09-06T21:24:35.230Z,5.78
2022-09-06T21:29:40.337Z,6.22
2022-09-06T21:34:44.066Z,5.43
2022-09-06T21:39:47.922Z,5.20
2022-09-06T21:44:53.454Z,5.15
2022-09-06T21:49:57.266Z,5.30
2022-09-06T21:55:00.908Z,5.60
2022-09-06T22:00:07.606Z,5.87
2022-09-06T22:05:11.095Z,4.70
2022-09-06T22:10:14.897Z,4.28
2022-09-06T22:15:21.604Z,3.53
2022-09-06T22:20:25.313Z,4.57
2022-09-06T22:25:28.984Z,5.85
2022-09-06T22:30:34.060Z,6.05
2022-09-06T22:35:37.793Z,7.57
2022-09-06T22:40:41.610Z,8.30
2022-09-06T22:45:51.331Z,9.95
2022-09-06T22:50:55.750Z,9.88
2022-09-06T22:56:00.122Z,9.13
2022-09-06T23:01:11.188Z,8.88
2022-09-06T23:06:15.042Z,7.85
2022-09-06T23:11:20.208Z,5.28
2022-09-06T23:16:28.281Z,3.67
2022-09-06T23:26:36.636Z,2.25
2022-09-06T23:31:42.482Z,1.85
2022-09-06T23:36:46.329Z,2.25
2022-09-06T23:41:50.066Z,1.85
2022-09-06T23:46:55.216Z,2.10
2022-09-06T23:51:59.033Z,2.12
2022-09-06T23:57:02.765Z,2.20
